Theodore Francis Green State Airport
KPVD : now visible

Airfield :











YOU CAN JOIN US ON...

 
LOGIN :

Register | Disclaimer

   EN    FR    IT 

 









Legend :    VFR   Marginal VFR   IFR   Intensive IFR   Very Intensive IFR
Visi :
Ceiling :
>= 8 km
>= 3000ft
5 to 8 km
1000 to 3000 ft
1500m to 5 km
500 to 1000 ft
800 to 1500m
200 to 500 ft
< 800m
< 200 ft
Symbols :   Thunderstorms  Fog  Heavy snow  Heavy precipitations  Wind > 20 kt






- Airport Elevation : 55 ft
- IATA code : PVD


KPVD - Theodore Francis Green State

CURRENT METAR :
  • 100551Z 27011G20KT 10SM CLR 04/M04 A2921 RMK AO2 SLP892 T00441044 10067 20044 58008

EXPIRED METARs :
  • 100451Z 28008KT 10SM CLR 05/M04 A2923 RMK AO2 SLP896 T00501044 401110044
  • 100351Z 27010KT 10SM CLR 06/M04 A2923 RMK AO2 SLP899 LAST T00561039

TAF KPVD
Valid from the 10 at 06:00 until the 11 at 06:00 UTC


100524Z 1006/1106 26010KT P6SM SKC
FM101300 27016G26KT P6SM SKC
FM110000 30009KT P6SM BKN050



MET'MAP, your aeronautical weather chart ! - Copyright ORBIFLY December 2007 - Disclaimer

ORBIFLY MET'MAP TEAM :

Programming & Development : Alexandra Zaïnal
Concept & original design : Baudouin d'Aumeries
Assistance for programming : Marc-Olivier Méhu
Technical & hardware support : Manuel Goepfert

Contact : metmap@orbifly.com




SOURCES & CREDITS :

   NOAA       Earth
Advisory